| time (UTC) | temp C | wind direction | speed KPH | gust KPH | rain 1hr cm | rain 24hr cm | rain mn cm | humidity % | barometer mb |
| 20260508044140 | 9 | 263 | 8.0 | 14.5 | 0.00 | 0.00 | 0.00 | 48 | 1021.1 |
| 20260508043637 | 9 | 282 | 11.3 | 14.5 | 0.00 | 0.00 | 0.00 | 47 | 1021.1 |
| 20260508043135 | 10 | 271 | 9.7 | 11.3 | 0.00 | 0.00 | 0.00 | 46 | 1021.2 |
| 20260508042631 | 10 | 300 | 4.8 | 8.0 | 0.00 | 0.00 | 0.00 | 46 | 1021.1 |
| 20260508042128 | 10 | 307 | 8.0 | 12.9 | 0.00 | 0.00 | 0.00 | 45 | 1021.3 |
| 20260508041624 | 10 | 315 | 14.5 | 17.7 | 0.00 | 0.00 | 0.00 | 42 | 1021.1 |
| 20260508041121 | 10 | 290 | 9.7 | 12.9 | 0.00 | 0.00 | 0.00 | 43 | 1020.9 |
| 20260508040618 | 10 | 312 | 11.3 | 12.9 | 0.00 | 0.00 | 0.00 | 42 | 1021.1 |
| 20260508040116 | 10 | 305 | 8.0 | 12.9 | 0.00 | 0.00 | 0.00 | 43 | 1021.1 |
| 20260508035613 | 10 | 322 | 9.7 | 12.9 | 0.00 | 0.00 | 0.00 | 43 | 1021.1 |
| 20260508035110 | 10 | 307 | 9.7 | 14.5 | 0.00 | 0.00 | 0.00 | 43 | 1021.1 |
| 20260508034606 | 10 | 329 | 12.9 | 22.5 | 0.00 | 0.00 | 0.00 | 42 | 1020.9 |
| 20260508034103 | 10 | 324 | 12.9 | 16.1 | 0.00 | 0.00 | 0.00 | 41 | 1021.1 |
| 20260508033601 | 10 | 302 | 6.4 | 14.5 | 0.00 | 0.00 | 0.00 | 43 | 1021.1 |
| 20260508033059 | 10 | 315 | 12.9 | 17.7 | 0.00 | 0.00 | 0.00 | 40 | 1020.8 |
| 20260508032555 | 10 | 320 | 8.0 | 12.9 | 0.00 | 0.00 | 0.00 | 42 | 1020.9 |
| 20260508032053 | 11 | 326 | 8.0 | 20.9 | 0.00 | 0.00 | 0.00 | 42 | 1020.6 |
| 20260508031550 | 11 | 323 | 16.1 | 20.9 | 0.00 | 0.00 | 0.00 | 40 | 1020.7 |
| 20260508031046 | 11 | 318 | 11.3 | 24.1 | 0.00 | 0.00 | 0.00 | 40 | 1020.6 |
| 20260508030542 | 11 | 322 | 12.9 | 17.7 | 0.00 | 0.00 | 0.00 | 39 | 1020.6 |
| 20260508030041 | 11 | 327 | 8.0 | 12.9 | 0.00 | 0.00 | 0.00 | 38 | 1020.3 |
| 20260508025536 | 11 | 304 | 8.0 | 14.5 | 0.00 | 0.00 | 0.00 | 38 | 1020.3 |
| 20260508025033 | 10 | 302 | 4.8 | 11.3 | 0.00 | 0.00 | 0.00 | 40 | 1020.2 |
| 20260508024529 | 11 | 322 | 9.7 | 11.3 | 0.00 | 0.00 | 0.00 | 39 | 1019.9 |
| 20260508024026 | 11 | 334 | 11.3 | 14.5 | 0.00 | 0.00 | 0.00 | 38 | 1020.2 |
| 20260508023523 | 11 | 317 | 9.7 | 12.9 | 0.00 | 0.00 | 0.00 | 38 | 1019.9 |
| 20260508023021 | 11 | 328 | 9.7 | 20.9 | 0.00 | 0.00 | 0.00 | 36 | 1019.9 |
| 20260508022516 | 10 | 313 | 3.2 | 4.8 | 0.00 | 0.00 | 0.00 | 39 | 1019.9 |
| 20260508022013 | 11 | 334 | 4.8 | 8.0 | 0.00 | 0.00 | 0.00 | 38 | 1019.8 |
| 20260508021509 | 11 | 301 | 1.6 | 3.2 | 0.00 | 0.00 | 0.00 | 38 | 1019.8 |
| 20260508021005 | 11 | 304 | 3.2 | 4.8 | 0.00 | 0.00 | 0.00 | 37 | 1019.8 |
| 20260508020503 | 11 | 305 | 9.7 | 12.9 | 0.00 | 0.00 | 0.00 | 34 | 1019.5 |
| 20260508020000 | 11 | 305 | 4.8 | 4.8 | 0.00 | 0.00 | 0.00 | 37 | 1019.7 |
| 20260508015458 | 11 | 308 | 3.2 | 8.0 | 0.00 | 0.00 | 0.00 | 37 | 1019.7 |
| 20260508014954 | 11 | 303 | 4.8 | 8.0 | 0.00 | 0.00 | 0.00 | 36 | 1019.7 |
| 20260508014451 | 11 | 301 | 4.8 | 9.7 | 0.00 | 0.00 | 0.00 | 37 | 1019.5 |
| 20260508013947 | 11 | 302 | 6.4 | 11.3 | 0.00 | 0.00 | 0.00 | 35 | 1019.4 |
| 20260508013443 | 12 | 327 | 9.7 | 12.9 | 0.00 | 0.00 | 0.00 | 33 | 1019.2 |
| 20260508012941 | 12 | 316 | 6.4 | 12.9 | 0.00 | 0.00 | 0.00 | 34 | 1019.4 |
| 20260508012437 | 12 | 322 | 8.0 | 14.5 | 0.00 | 0.00 | 0.00 | 33 | 1019.3 |
| 20260508011935 | 12 | 296 | 14.5 | 20.9 | 0.00 | 0.00 | 0.00 | 33 | 1019.2 |
| 20260508011434 | 12 | 312 | 9.7 | 11.3 | 0.00 | 0.00 | 0.00 | 35 | 1019.2 |
| 20260508010930 | 12 | 320 | 12.9 | 16.1 | 0.00 | 0.00 | 0.00 | 32 | 1019.2 |
| 20260508010427 | 12 | 330 | 8.0 | 14.5 | 0.00 | 0.00 | 0.00 | 34 | 1019.2 |
| 20260508005924 | 12 | 313 | 6.4 | 9.7 | 0.00 | 0.00 | 0.00 | 34 | 1018.8 |
| 20260508005421 | 13 | 337 | 8.0 | 12.9 | 0.00 | 0.00 | 0.00 | 33 | 1018.9 |
| 20260508004917 | 13 | 328 | 14.5 | 20.9 | 0.00 | 0.00 | 0.00 | 31 | 1018.8 |
| 20260508004414 | 15 | 338 | 14.5 | 22.5 | 0.00 | 0.00 | 0.00 | 30 | 1019.2 |
| 20260508003910 | 15 | 309 | 14.5 | 22.5 | 0.00 | 0.00 | 0.00 | 29 | 1019.0 |
| 20260508003407 | 14 | 308 | 11.3 | 14.5 | 0.00 | 0.00 | 0.00 | 30 | 1019.0 |
| 20260508002904 | 14 | 269 | 11.3 | 14.5 | 0.00 | 0.00 | 0.00 | 29 | 1019.0 |
| 20260508002401 | 14 | 311 | 9.7 | 12.9 | 0.00 | 0.00 | 0.00 | 29 | 1019.2 |
| 20260508001857 | 13 | 312 | 16.1 | 20.9 | 0.00 | 0.00 | 0.00 | 31 | 1019.0 |
| 20260508001353 | 15 | 309 | 14.5 | 24.1 | 0.00 | 0.00 | 0.00 | 30 | 1019.0 |
| 20260508000850 | 15 | 334 | 14.5 | 16.1 | 0.00 | 0.00 | 0.00 | 30 | 1018.9 |
| 20260508000346 | 13 | 260 | 9.7 | 20.9 | 0.00 | 0.00 | 0.00 | 30 | 1019.0 |
| 20260507235843 | 13 | 296 | 6.4 | 9.7 | 0.00 | 0.00 | 0.00 | 32 | 1019.0 |
| 20260507235340 | 13 | 284 | 17.7 | 17.7 | 0.00 | 0.00 | 0.00 | 33 | 1018.9 |
| 20260507234837 | 13 | 340 | 8.0 | 11.3 | 0.00 | 0.00 | 0.00 | 32 | 1018.9 |
| 20260507234334 | 14 | 346 | 8.0 | 11.3 | 0.00 | 0.00 | 0.00 | 32 | 1019.0 |
| 20260507233830 | 15 | 292 | 9.7 | 11.3 | 0.00 | 0.00 | 0.00 | 31 | 1019.0 |
| 20260507233328 | 15 | 307 | 8.0 | 14.5 | 0.00 | 0.00 | 0.00 | 30 | 1019.2 |
| 20260507232826 | 15 | 324 | 11.3 | 20.9 | 0.00 | 0.00 | 0.00 | 30 | 1018.9 |
| 20260507232322 | 15 | 348 | 12.9 | 17.7 | 0.00 | 0.00 | 0.00 | 30 | 1019.0 |
| 20260507231819 | 14 | 322 | 14.5 | 24.1 | 0.00 | 0.00 | 0.00 | 32 | 1019.0 |
| 20260507231316 | 15 | 316 | 14.5 | 24.1 | 0.00 | 0.00 | 0.00 | 30 | 1018.9 |
| 20260507230812 | 15 | 315 | 19.3 | 24.1 | 0.00 | 0.00 | 0.00 | 29 | 1019.0 |
| 20260507230309 | 15 | 314 | 14.5 | 22.5 | 0.00 | 0.00 | 0.00 | 30 | 1019.2 |
| 20260507225804 | 15 | 314 | 16.1 | 29.0 | 0.00 | 0.00 | 0.00 | 31 | 1018.9 |
| 20260507225300 | 15 | 280 | 9.7 | 17.7 | 0.00 | 0.00 | 0.00 | 31 | 1019.0 |
| 20260507224756 | 15 | 288 | 19.3 | 27.4 | 0.00 | 0.00 | 0.00 | 31 | 1018.9 |
| 20260507224253 | 15 | 308 | 17.7 | 24.1 | 0.00 | 0.00 | 0.00 | 29 | 1019.0 |
| 20260507223749 | 15 | 319 | 14.5 | 25.7 | 0.00 | 0.00 | 0.00 | 29 | 1018.9 |
| 20260507223245 | 15 | 330 | 16.1 | 24.1 | 0.00 | 0.00 | 0.00 | 29 | 1019.2 |
| 20260507222743 | 15 | 358 | 19.3 | 22.5 | 0.00 | 0.00 | 0.00 | 29 | 1019.0 |
| 20260507222239 | 15 | 344 | 17.7 | 25.7 | 0.00 | 0.00 | 0.00 | 28 | 1018.9 |
| 20260507221736 | 15 | 275 | 16.1 | 20.9 | 0.00 | 0.00 | 0.00 | 29 | 1018.9 |
| 20260507221232 | 15 | 321 | 12.9 | 22.5 | 0.00 | 0.00 | 0.00 | 31 | 1019.3 |
| 20260507220729 | 15 | 87 | 16.1 | 20.9 | 0.00 | 0.00 | 0.00 | 32 | 1019.2 |
| 20260507220227 | 15 | 310 | 12.9 | 24.1 | 0.00 | 0.00 | 0.00 | 32 | 1019.0 |
| 20260507215723 | 15 | 295 | 14.5 | 25.7 | 0.00 | 0.00 | 0.00 | 32 | 1019.3 |
| 20260507215221 | 15 | 54 | 20.9 | 25.7 | 0.00 | 0.00 | 0.00 | 31 | 1019.3 |
| 20260507214718 | 15 | 17 | 9.7 | 17.7 | 0.00 | 0.00 | 0.00 | 33 | 1019.5 |
| 20260507214215 | 15 | 335 | 9.7 | 16.1 | 0.00 | 0.00 | 0.00 | 31 | 1019.8 |
| 20260507213710 | 15 | 21 | 8.0 | 14.5 | 0.00 | 0.00 | 0.00 | 34 | 1019.9 |
| 20260507213208 | 13 | 46 | 4.8 | 4.8 | 0.00 | 0.00 | 0.00 | 34 | 1019.9 |
| 20260507212703 | 13 | 332 | 11.3 | 17.7 | 0.00 | 0.00 | 0.00 | 33 | 1019.9 |
| 20260507212200 | 15 | 11 | 16.1 | 20.9 | 0.00 | 0.00 | 0.00 | 33 | 1019.9 |
| 20260507211657 | 15 | 332 | 8.0 | 22.5 | 0.00 | 0.00 | 0.00 | 32 | 1019.8 |
| 20260507211153 | 15 | 347 | 12.9 | 20.9 | 0.00 | 0.00 | 0.00 | 34 | 1020.0 |
| 20260507210650 | 15 | 21 | 14.5 | 17.7 | 0.00 | 0.00 | 0.00 | 32 | 1020.0 |
| 20260507210147 | 15 | 36 | 6.4 | 17.7 | 0.00 | 0.00 | 0.00 | 33 | 1019.9 |
| 20260507205643 | 15 | 354 | 22.5 | 25.7 | 0.00 | 0.00 | 0.00 | 32 | 1020.2 |
| 20260507205140 | 15 | 346 | 9.7 | 20.9 | 0.00 | 0.00 | 0.00 | 34 | 1019.9 |
| 20260507204636 | 15 | 353 | 14.5 | 16.1 | 0.00 | 0.00 | 0.00 | 31 | 1020.2 |
| 20260507204134 | 15 | 23 | 16.1 | 20.9 | 0.00 | 0.00 | 0.00 | 33 | 1020.2 |
| 20260507203632 | 15 | 3 | 17.7 | 20.9 | 0.00 | 0.00 | 0.00 | 33 | 1019.9 |
| 20260507203129 | 15 | 310 | 12.9 | 22.5 | 0.00 | 0.00 | 0.00 | 34 | 1020.0 |
| 20260507202625 | 15 | 315 | 14.5 | 20.9 | 0.00 | 0.00 | 0.00 | 32 | 1020.3 |
| 20260507202121 | 16 | 336 | 20.9 | 29.0 | 0.00 | 0.00 | 0.00 | 32 | 1020.2 |
| 20260507201616 | 15 | 345 | 8.0 | 14.5 | 0.00 | 0.00 | 0.00 | 34 | 1019.9 |
| 20260507201114 | 15 | 81 | 12.9 | 16.1 | 0.00 | 0.00 | 0.00 | 34 | 1020.3 |
| 20260507200609 | 14 | 42 | 6.4 | 9.7 | 0.00 | 0.00 | 0.00 | 34 | 1020.0 |
| 20260507200105 | 13 | 359 | 12.9 | 17.7 | 0.00 | 0.00 | 0.00 | 36 | 1020.4 |
| 20260507195603 | 12 | 98 | 11.3 | 14.5 | 0.00 | 0.00 | 0.00 | 36 | 1020.3 |
| 20260507195100 | 12 | 350 | 4.8 | 9.7 | 0.00 | 0.00 | 0.00 | 37 | 1020.6 |
| 20260507194556 | 12 | 339 | 6.4 | 14.5 | 0.00 | 0.00 | 0.00 | 37 | 1020.4 |
| 20260507194052 | 13 | 353 | 4.8 | 11.3 | 0.00 | 0.00 | 0.00 | 38 | 1020.4 |
| 20260507193549 | 12 | 323 | 1.6 | 4.8 | 0.00 | 0.00 | 0.00 | 37 | 1020.4 |
| 20260507193046 | 12 | 209 | 4.8 | 8.0 | 0.00 | 0.00 | 0.00 | 36 | 1020.6 |
| 20260507192542 | 11 | 312 | 1.6 | 3.2 | 0.00 | 0.00 | 0.00 | 39 | 1020.6 |
| 20260507192039 | 11 | 326 | 1.6 | 4.8 | 0.00 | 0.00 | 0.00 | 39 | 1020.7 |
| 20260507191534 | 11 | 340 | 3.2 | 4.8 | 0.00 | 0.00 | 0.00 | 38 | 1020.8 |
| 20260507191032 | 11 | 320 | 1.6 | 3.2 | 0.00 | 0.00 | 0.00 | 39 | 1020.9 |
| 20260507190529 | 10 | 262 | 4.8 | 8.0 | 0.00 | 0.00 | 0.00 | 37 | 1020.8 |
| 20260507190028 | 11 | 240 | 3.2 | 3.2 | 0.00 | 0.00 | 0.00 | 38 | 1021.1 |
| 20260507185526 | 11 | 294 | 1.6 | 3.2 | 0.00 | 0.00 | 0.00 | 37 | 1020.9 |
| 20260507185022 | 10 | 3 | 3.2 | 3.2 | 0.00 | 0.00 | 0.00 | 38 | 1021.2 |
| 20260507184520 | 10 | 236 | 3.2 | 4.8 | 0.00 | 0.00 | 0.00 | 38 | 1021.3 |
| 20260507184018 | 10 | 331 | 3.2 | 4.8 | 0.00 | 0.00 | 0.00 | 38 | 1021.4 |
| 20260507183513 | 10 | 328 | 1.6 | 4.8 | 0.00 | 0.00 | 0.00 | 40 | 1021.6 |
| 20260507183011 | 10 | 317 | 4.8 | 9.7 | 0.00 | 0.00 | 0.00 | 38 | 1021.8 |
| 20260507182507 | 10 | 332 | 3.2 | 4.8 | 0.00 | 0.00 | 0.00 | 40 | 1021.7 |
| 20260507182003 | 10 | 291 | 4.8 | 8.0 | 0.00 | 0.00 | 0.00 | 41 | 1021.8 |
| 20260507181500 | 9 | 314 | 3.2 | 4.8 | 0.00 | 0.00 | 0.00 | 42 | 1022.1 |
| 20260507180956 | 9 | 326 | 4.8 | 8.0 | 0.00 | 0.00 | 0.00 | 39 | 1021.8 |
| 20260507180453 | 9 | 330 | 8.0 | 9.7 | 0.00 | 0.00 | 0.00 | 40 | 1022.2 |
| 20260507175949 | 9 | 335 | 9.7 | 11.3 | 0.00 | 0.00 | 0.00 | 43 | 1021.8 |
| 20260507175446 | 9 | 347 | 4.8 | 4.8 | 0.00 | 0.00 | 0.00 | 42 | 1022.0 |
| 20260507174944 | 9 | 329 | 6.4 | 9.7 | 0.00 | 0.00 | 0.00 | 43 | 1022.0 |
| 20260507174440 | 9 | 328 | 4.8 | 8.0 | 0.00 | 0.00 | 0.00 | 42 | 1022.0 |
| 20260507173938 | 9 | 314 | 8.0 | 11.3 | 0.00 | 0.00 | 0.00 | 42 | 1022.0 |
| 20260507173435 | 9 | 313 | 6.4 | 9.7 | 0.00 | 0.00 | 0.00 | 45 | 1022.1 |
| 20260507172932 | 9 | 322 | 6.4 | 11.3 | 0.00 | 0.00 | 0.00 | 42 | 1022.1 |
| 20260507172428 | 9 | 341 | 6.4 | 8.0 | 0.00 | 0.00 | 0.00 | 43 | 1022.0 |
| 20260507171924 | 8 | 332 | 6.4 | 9.7 | 0.00 | 0.00 | 0.00 | 41 | 1022.3 |
| 20260507171421 | 8 | 338 | 8.0 | 9.7 | 0.00 | 0.00 | 0.00 | 43 | 1022.3 |
| 20260507170918 | 9 | 313 | 8.0 | 12.9 | 0.00 | 0.00 | 0.00 | 40 | 1022.3 |
| 20260507170415 | 9 | 324 | 4.8 | 14.5 | 0.00 | 0.00 | 0.00 | 42 | 1022.5 |
| 20260507165911 | 8 | 312 | 8.0 | 12.9 | 0.00 | 0.00 | 0.00 | 43 | 1022.5 |
| 20260507165407 | 9 | 299 | 11.3 | 12.9 | 0.00 | 0.00 | 0.00 | 43 | 1022.8 |
| 20260507164903 | 9 | 307 | 6.4 | 11.3 | 0.00 | 0.00 | 0.00 | 43 | 1022.8 |
| 20260507164400 | 9 | 305 | 4.8 | 14.5 | 0.00 | 0.00 | 0.00 | 43 | 1022.8 |
| 20260507163857 | 10 | 326 | 11.3 | 16.1 | 0.00 | 0.00 | 0.00 | 43 | 1022.6 |
| 20260507163354 | 10 | 315 | 11.3 | 16.1 | 0.00 | 0.00 | 0.00 | 43 | 1022.7 |
| 20260507162851 | 10 | 319 | 17.7 | 22.5 | 0.00 | 0.00 | 0.00 | 41 | 1022.6 |
| 20260507162346 | 10 | 344 | 14.5 | 22.5 | 0.00 | 0.00 | 0.00 | 43 | 1022.7 |
| 20260507161844 | 10 | 313 | 20.9 | 24.1 | 0.00 | 0.00 | 0.00 | 41 | 1022.8 |
| 20260507161340 | 10 | 329 | 16.1 | 27.4 | 0.00 | 0.00 | 0.00 | 41 | 1022.5 |
| 20260507160837 | 10 | 344 | 19.3 | 24.1 | 0.00 | 0.00 | 0.00 | 40 | 1022.6 |
| 20260507160332 | 10 | 325 | 16.1 | 22.5 | 0.00 | 0.00 | 0.00 | 39 | 1022.8 |
| 20260507155829 | 10 | 313 | 12.9 | 20.9 | 0.00 | 0.00 | 0.00 | 41 | 1022.7 |
| 20260507155325 | 10 | 288 | 4.8 | 20.9 | 0.00 | 0.00 | 0.00 | 42 | 1022.7 |
| 20260507154822 | 9 | 4 | 8.0 | 9.7 | 0.00 | 0.00 | 0.00 | 40 | 1022.8 |
| 20260507154319 | 8 | 1 | 8.0 | 11.3 | 0.00 | 0.00 | 0.00 | 43 | 1022.8 |
| 20260507153816 | 8 | 288 | 4.8 | 12.9 | 0.00 | 0.00 | 0.00 | 45 | 1022.8 |
| 20260507153312 | 8 | 305 | 9.7 | 20.9 | 0.00 | 0.00 | 0.00 | 43 | 1022.8 |
| 20260507152809 | 8 | 322 | 14.5 | 20.9 | 0.00 | 0.00 | 0.00 | 43 | 1023.0 |
| 20260507152306 | 8 | 305 | 6.4 | 12.9 | 0.00 | 0.00 | 0.00 | 44 | 1023.1 |
| 20260507151801 | 7 | 267 | 6.4 | 11.3 | 0.00 | 0.00 | 0.00 | 44 | 1023.1 |
| 20260507151257 | 6 | 212 | 8.0 | 11.3 | 0.00 | 0.00 | 0.00 | 43 | 1022.8 |
| 20260507150754 | 6 | 258 | 4.8 | 4.8 | 0.00 | 0.00 | 0.00 | 42 | 1023.1 |
| 20260507150251 | 6 | 265 | 6.4 | 9.7 | 0.00 | 0.00 | 0.00 | 43 | 1023.1 |
| 20260507145747 | 5 | 262 | 8.0 | 9.7 | 0.00 | 0.00 | 0.00 | 44 | 1023.3 |
| 20260507145244 | 5 | 248 | 6.4 | 12.9 | 0.00 | 0.00 | 0.00 | 48 | 1023.1 |
| 20260507144741 | 4 | 282 | 4.8 | 8.0 | 0.00 | 0.00 | 0.00 | 56 | 1023.2 |
| 20260507144239 | 3 | 318 | 3.2 | 3.2 | 0.00 | 0.00 | 0.00 | 66 | 1023.2 |
| 20260507143735 | 2 | 309 | 0.0 | 3.2 | 0.00 | 0.00 | 0.00 | 70 | 1023.5 |
| 20260507143232 | 1 | 310 | 1.6 | 3.2 | 0.00 | 0.00 | 0.00 | 71 | 1023.6 |
| 20260507142728 | 1 | 309 | 1.6 | 1.6 | 0.00 | 0.00 | 0.00 | 75 | 1023.6 |
| 20260507142225 | 0 | 348 | 4.8 | 4.8 | 0.00 | 0.00 | 0.00 | 74 | 1023.7 |
| 20260507141721 | 0 | 354 | 8.0 | 9.7 | 0.00 | 0.00 | 0.00 | 78 | 1023.9 |
| 20260507141219 | 0 | 338 | 3.2 | 9.7 | 0.00 | 0.00 | 0.00 | 80 | 1023.7 |
| 20260507140714 | 1 | 287 | 0.0 | 1.6 | 0.00 | 0.00 | 0.00 | 70 | 1023.6 |
| 20260507140212 | 0 | 256 | 4.8 | 8.0 | 0.00 | 0.00 | 0.00 | 68 | 1023.6 |
| 20260507135709 | 0 | 232 | 4.8 | 8.0 | 0.00 | 0.00 | 0.00 | 75 | 1023.6 |
| 20260507135206 | 0 | 271 | 3.2 | 4.8 | 0.00 | 0.00 | 0.00 | 72 | 1023.7 |
| 20260507134702 | -1 | 208 | 4.8 | 8.0 | 0.00 | 0.00 | 0.00 | 76 | 1023.6 |
| 20260507134159 | -2 | 265 | 4.8 | 4.8 | 0.00 | 0.00 | 0.00 | 78 | 1023.6 |
| 20260507133654 | -1 | 285 | 1.6 | 3.2 | 0.00 | 0.00 | 0.00 | 74 | 1023.7 |
| 20260507133152 | -2 | 281 | 1.6 | 3.2 | 0.00 | 0.00 | 0.00 | 78 | 1023.7 |
| 20260507132649 | -3 | 283 | 1.6 | 3.2 | 0.00 | 0.00 | 0.00 | 78 | 1024.0 |
| 20260507132145 | -3 | 299 | 0.0 | 1.6 | 0.00 | 0.00 | 0.00 | 83 | 1024.0 |
| 20260507131643 | -5 | 293 | 0.0 | 3.2 | 0.00 | 0.00 | 0.00 | 87 | 1023.7 |
| 20260507131140 | -5 | 293 | 1.6 | 1.6 | 0.00 | 0.00 | 0.00 | 88 | 1024.0 |
| 20260507130636 | -5 | 287 | 1.6 | 3.2 | 0.00 | 0.00 | 0.00 | 89 | 1023.6 |
| 20260507130134 | -6 | 265 | 4.8 | 4.8 | 0.00 | 0.00 | 0.00 | 90 | 1024.0 |
| 20260507125633 | -6 | 242 | 4.8 | 4.8 | 0.00 | 0.00 | 0.00 | 93 | 1023.7 |
| 20260507125130 | -7 | 293 | 0.0 | 1.6 | 0.00 | 0.00 | 0.00 | 94 | 1023.9 |
| 20260507124626 | -7 | 289 | 1.6 | 1.6 | 0.00 | 0.00 | 0.00 | 95 | 1023.9 |
| 20260507124124 | -7 | 285 | 1.6 | 3.2 | 0.00 | 0.00 | 0.00 | 95 | 1023.7 |
| 20260507123622 | -8 | 305 | 1.6 | 1.6 | 0.00 | 0.00 | 0.00 | 95 | 1023.9 |
| 20260507123119 | -8 | 287 | 3.2 | 3.2 | 0.00 | 0.00 | 0.00 | 95 | 1023.7 |
| 20260507122614 | -7 | 292 | 0.0 | 1.6 | 0.00 | 0.00 | 0.00 | 94 | 1023.6 |
| 20260507122110 | -7 | 293 | 0.0 | 1.6 | 0.00 | 0.00 | 0.00 | 94 | 1023.3 |
| 20260507121606 | -7 | 287 | 0.0 | 1.6 | 0.00 | 0.00 | 0.00 | 94 | 1023.2 |
| 20260507121102 | -7 | 286 | 1.6 | 1.6 | 0.00 | 0.00 | 0.00 | 94 | 1023.6 |
| 20260507120558 | -7 | 280 | 1.6 | 3.2 | 0.00 | 0.00 | 0.00 | 93 | 1023.5 |
| 20260507120055 | -7 | 258 | 4.8 | 4.8 | 0.00 | 0.00 | 0.00 | 95 | 1023.3 |
| 20260507115551 | -7 | 295 | 1.6 | 1.6 | 0.00 | 0.00 | 0.00 | 95 | 1023.5 |
| 20260507115047 | -7 | 296 | 0.0 | 0.0 | 0.00 | 0.00 | 0.00 | 94 | 1023.5 |
| 20260507114543 | -7 | 296 | 0.0 | 1.6 | 0.00 | 0.00 | 0.00 | 95 | 1023.2 |
| 20260507114041 | -7 | 290 | 0.0 | 1.6 | 0.00 | 0.00 | 0.00 | 95 | 1023.5 |
| 20260507113538 | -7 | 290 | 0.0 | 0.0 | 0.00 | 0.00 | 0.00 | 94 | 1023.2 |
| 20260507113035 | -7 | 289 | 0.0 | 1.6 | 0.00 | 0.00 | 0.00 | 95 | 1023.1 |
| 20260507112533 | -7 | 272 | 4.8 | 4.8 | 0.00 | 0.00 | 0.00 | 94 | 1023.3 |
| 20260507112029 | -7 | 288 | 0.0 | 1.6 | 0.00 | 0.00 | 0.00 | 95 | 1023.3 |
| 20260507111526 | -7 | 280 | 3.2 | 3.2 | 0.00 | 0.00 | 0.00 | 95 | 1023.3 |
| 20260507111023 | -7 | 293 | 0.0 | 0.0 | 0.00 | 0.00 | 0.00 | 94 | 1023.2 |
| 20260507110519 | -7 | 289 | 1.6 | 1.6 | 0.00 | 0.00 | 0.00 | 95 | 1023.2 |
| 20260507110016 | -7 | 284 | 3.2 | 3.2 | 0.00 | 0.00 | 0.00 | 95 | 1023.2 |
| 20260507105513 | -7 | 291 | 0.0 | 0.0 | 0.00 | 0.00 | 0.00 | 95 | 1023.3 |
| 20260507105009 | -7 | 285 | 3.2 | 3.2 | 0.00 | 0.00 | 0.00 | 95 | 1023.2 |
| 20260507104507 | -7 | 280 | 3.2 | 3.2 | 0.00 | 0.00 | 0.00 | 96 | 1023.1 |
| 20260507104003 | -7 | 295 | 1.6 | 1.6 | 0.00 | 0.00 | 0.00 | 95 | 1023.3 |
| 20260507103500 | -7 | 272 | 3.2 | 4.8 | 0.00 | 0.00 | 0.00 | 95 | 1023.1 |
| 20260507102955 | -7 | 288 | 1.6 | 1.6 | 0.00 | 0.00 | 0.00 | 95 | 1023.2 |
| 20260507102452 | -7 | 287 | 1.6 | 1.6 | 0.00 | 0.00 | 0.00 | 93 | 1023.1 |
| 20260507101948 | -7 | 287 | 1.6 | 1.6 | 0.00 | 0.00 | 0.00 | 94 | 1023.1 |
| 20260507101443 | -7 | 289 | 0.0 | 1.6 | 0.00 | 0.00 | 0.00 | 94 | 1023.0 |
| 20260507100940 | -7 | 272 | 3.2 | 3.2 | 0.00 | 0.00 | 0.00 | 94 | 1023.0 |
| 20260507100438 | -7 | 289 | 0.0 | 0.0 | 0.00 | 0.00 | 0.00 | 93 | 1023.1 |
| 20260507095936 | -7 | 282 | 1.6 | 3.2 | 0.00 | 0.00 | 0.00 | 94 | 1023.3 |
| 20260507095433 | -7 | 290 | 0.0 | 1.6 | 0.00 | 0.00 | 0.00 | 94 | 1023.3 |
| 20260507094930 | -7 | 278 | 3.2 | 3.2 | 0.00 | 0.00 | 0.00 | 94 | 1023.2 |
| 20260507094426 | -7 | 280 | 1.6 | 3.2 | 0.00 | 0.00 | 0.00 | 94 | 1023.5 |
| 20260507093923 | -7 | 283 | 1.6 | 3.2 | 0.00 | 0.00 | 0.00 | 95 | 1023.2 |
| 20260507093421 | -7 | 294 | 0.0 | 0.0 | 0.00 | 0.00 | 0.00 | 94 | 1023.3 |
| 20260507092920 | -7 | 295 | 0.0 | 1.6 | 0.00 | 0.00 | 0.00 | 94 | 1023.2 |
| 20260507092415 | -7 | 298 | 1.6 | 1.6 | 0.00 | 0.00 | 0.00 | 94 | 1023.6 |
| 20260507091912 | -7 | 292 | 1.6 | 1.6 | 0.00 | 0.00 | 0.00 | 93 | 1023.3 |
| 20260507091408 | -6 | 288 | 0.0 | 1.6 | 0.00 | 0.00 | 0.00 | 93 | 1023.3 |
| 20260507090904 | -6 | 282 | 1.6 | 1.6 | 0.00 | 0.00 | 0.00 | 93 | 1023.5 |
| 20260507090401 | -6 | 256 | 4.8 | 4.8 | 0.00 | 0.00 | 0.00 | 93 | 1023.5 |
| 20260507085858 | -6 | 245 | 4.8 | 8.0 | 0.00 | 0.00 | 0.00 | 94 | 1023.3 |
| 20260507085354 | -6 | 275 | 3.2 | 3.2 | 0.00 | 0.00 | 0.00 | 94 | 1023.3 |
| 20260507084852 | -6 | 229 | 6.4 | 8.0 | 0.00 | 0.00 | 0.00 | 94 | 1023.3 |
| 20260507084348 | -6 | 264 | 3.2 | 3.2 | 0.00 | 0.00 | 0.00 | 94 | 1023.2 |
| 20260507083845 | -6 | 289 | 0.0 | 1.6 | 0.00 | 0.00 | 0.00 | 94 | 1023.6 |
| 20260507083342 | -6 | 283 | 1.6 | 3.2 | 0.00 | 0.00 | 0.00 | 93 | 1023.2 |
| 20260507082838 | -6 | 269 | 3.2 | 4.8 | 0.00 | 0.00 | 0.00 | 93 | 1023.3 |
| 20260507082333 | -6 | 276 | 3.2 | 4.8 | 0.00 | 0.00 | 0.00 | 93 | 1023.3 |
| 20260507081831 | -6 | 243 | 6.4 | 8.0 | 0.00 | 0.00 | 0.00 | 93 | 1023.5 |
| 20260507081327 | -6 | 261 | 4.8 | 4.8 | 0.00 | 0.00 | 0.00 | 93 | 1023.6 |
| 20260507080824 | -6 | 262 | 4.8 | 8.0 | 0.00 | 0.00 | 0.00 | 94 | 1023.2 |
| 20260507080320 | -6 | 229 | 8.0 | 9.7 | 0.00 | 0.00 | 0.00 | 94 | 1023.3 |
| 20260507075815 | -6 | 296 | 0.0 | 1.6 | 0.00 | 0.00 | 0.00 | 94 | 1023.5 |
| 20260507075312 | -6 | 257 | 4.8 | 4.8 | 0.00 | 0.00 | 0.00 | 94 | 1023.6 |
| 20260507074809 | -6 | 282 | 1.6 | 4.8 | 0.00 | 0.00 | 0.00 | 94 | 1023.5 |
| 20260507074306 | -6 | 287 | 1.6 | 1.6 | 0.00 | 0.00 | 0.00 | 94 | 1023.3 |
| 20260507073803 | -5 | 284 | 3.2 | 4.8 | 0.00 | 0.00 | 0.00 | 94 | 1023.3 |
| 20260507073300 | -6 | 227 | 4.8 | 8.0 | 0.00 | 0.00 | 0.00 | 95 | 1023.3 |
| 20260507072757 | -6 | 219 | 9.7 | 12.9 | 0.00 | 0.00 | 0.00 | 95 | 1023.5 |
| 20260507072254 | -6 | 260 | 4.8 | 8.0 | 0.00 | 0.00 | 0.00 | 96 | 1023.2 |
| 20260507071752 | -6 | 284 | 1.6 | 3.2 | 0.00 | 0.00 | 0.00 | 96 | 1023.2 |
| 20260507071248 | -5 | 281 | 3.2 | 3.2 | 0.00 | 0.00 | 0.00 | 95 | 1023.3 |
| 20260507070745 | -5 | 285 | 1.6 | 3.2 | 0.00 | 0.00 | 0.00 | 95 | 1023.1 |
| 20260507070242 | -5 | 302 | 3.2 | 3.2 | 0.00 | 0.00 | 0.00 | 95 | 1023.1 |
| 20260507065738 | -5 | 292 | 1.6 | 1.6 | 0.00 | 0.00 | 0.00 | 95 | 1023.3 |
| 20260507065235 | -5 | 242 | 6.4 | 9.7 | 0.00 | 0.00 | 0.00 | 95 | 1023.0 |
| 20260507064733 | -5 | 276 | 3.2 | 3.2 | 0.00 | 0.00 | 0.00 | 96 | 1023.2 |
| 20260507064232 | -5 | 290 | 1.6 | 1.6 | 0.00 | 0.00 | 0.00 | 96 | 1023.1 |
| 20260507063728 | -5 | 253 | 4.8 | 8.0 | 0.00 | 0.00 | 0.00 | 96 | 1023.1 |
| 20260507063225 | -5 | 253 | 4.8 | 8.0 | 0.00 | 0.00 | 0.00 | 96 | 1023.1 |
| 20260507062722 | -5 | 286 | 1.6 | 1.6 | 0.00 | 0.00 | 0.00 | 97 | 1023.1 |
| 20260507062220 | -5 | 288 | 1.6 | 1.6 | 0.00 | 0.00 | 0.00 | 96 | 1023.0 |
| 20260507061717 | -5 | 251 | 6.4 | 8.0 | 0.00 | 0.00 | 0.00 | 96 | 1023.1 |
| 20260507061215 | -5 | 272 | 3.2 | 3.2 | 0.00 | 0.00 | 0.00 | 96 | 1023.1 |
| 20260507060713 | -4 | 275 | 3.2 | 3.2 | 0.00 | 0.00 | 0.00 | 96 | 1023.1 |
| 20260507060209 | -4 | 283 | 1.6 | 3.2 | 0.00 | 0.00 | 0.00 | 96 | 1022.7 |
| 20260507055705 | -4 | 267 | 4.8 | 4.8 | 0.00 | 0.03 | 0.03 | 96 | 1023.0 |
| 20260507055201 | -4 | 267 | 4.8 | 4.8 | 0.00 | 0.03 | 0.03 | 96 | 1022.5 |
| 20260507054657 | -4 | 286 | 1.6 | 1.6 | 0.00 | 0.03 | 0.03 | 96 | 1022.6 |
| 20260507054154 | -4 | 259 | 4.8 | 4.8 | 0.00 | 0.03 | 0.03 | 96 | 1022.7 |
| 20260507053652 | -4 | 271 | 3.2 | 4.8 | 0.00 | 0.03 | 0.03 | 96 | 1022.6 |
| 20260507053150 | -4 | 267 | 4.8 | 4.8 | 0.00 | 0.03 | 0.03 | 96 | 1022.7 |
| 20260507052648 | -3 | 264 | 4.8 | 8.0 | 0.00 | 0.03 | 0.03 | 96 | 1022.3 |
| 20260507052144 | -3 | 270 | 3.2 | 3.2 | 0.00 | 0.03 | 0.03 | 96 | 1022.6 |
| 20260507051642 | -3 | 278 | 1.6 | 4.8 | 0.00 | 0.03 | 0.03 | 96 | 1022.2 |
| 20260507051138 | -3 | 209 | 6.4 | 8.0 | 0.00 | 0.03 | 0.03 | 96 | 1022.3 |
| 20260507050635 | -3 | 284 | 0.0 | 4.8 | 0.00 | 0.03 | 0.03 | 96 | 1022.5 |
| 20260507050132 | -3 | 280 | 1.6 | 4.8 | 0.00 | 0.03 | 0.03 | 96 | 1022.2 |
| 20260507045629 | -3 | 266 | 3.2 | 4.8 | 0.00 | 0.03 | 0.03 | 96 | 1022.5 |
| 20260507045126 | -3 | 278 | 3.2 | 3.2 | 0.00 | 0.03 | 0.03 | 96 | 1022.1 |
| 20260507044622 | -3 | 266 | 3.2 | 4.8 | 0.00 | 0.03 | 0.03 | 95 | 1022.3 |